Camden, Ohio
Current Conditions -  °F | °C
As of 7:35 AM on Monday 26 Jan 2015 (Local Time) from KMWO Reporting Station
Overcast Overcast  
Wind Chill:   Ceiling: 3700
Heat Index: 20°   Visibility: 10mi
Dew Point: 14°   Wind: 10mph
Humidity: 77%   Direction: 360°N
Pressure: 29.89"   Gusts: NA
Location:  39.63°N, 84.65°W
Report Text: KMWO 261235Z AUTO 36009KT 10SM OVC037 M07/M10 A2989 RMK AO2 T10661100
Loading
Personal Weather Stations






























Interactive Weather Map New forecast layout! Learn more

10-Day Weather Forecast

Advertisements
Track Severe Weather on mobile